Maran Sagitta — SVAQ6 — position and weather

sailwx.info

Track history (hours):
 
Tides and Currents Weather Stations Pressure Air Temp Water Temp Dewpoint Dewpoint Depression Visibility Wind Speed Wind Dir Waves Ship Positions

Maran Sagitta

Last reported at 2018-Feb-20 02:43 UTC. Time now 2018-Feb-23 16:51 UTC.
Position N 25°40' W 079°34'.

Length 244 m; draft 12.1 m.

Type: Tanker. MMSI: 240892000.

Date/timePositionNaut miles runAvg speedWind from/ knotsBaromVisibWave heightAir tempDewpointWater temp
2018-Feb-20 02:43N 25°40' W 079°34'211.3
2018-Feb-20 02:30N 25°43' W 079°33'611.3
2018-Feb-20 01:59N 25°49' W 079°33'611.3
2018-Feb-20 01:29N 25°54' W 079°32'1011.3
2018-Feb-20 00:37N 26°04' W 079°31'111.3
2018-Feb-20 00:30N 26°05' W 079°30'611.4
2018-Feb-20 00:00N 26°11' W 079°29'611.4
2018-Feb-19 23:30N 26°17' W 079°28'611.4
2018-Feb-19 22:57N 26°23' W 079°27'  
Track history (hours):
 
Tides and Currents Weather Stations Pressure Air Temp Water Temp Dewpoint Dewpoint Depression Visibility Wind Speed Wind Dir Waves Ship Positions

Maran Sagitta

Last reported at 2018-Feb-20 02:43 UTC. Time now 2018-Feb-23 16:51 UTC.
Position N 25°40' W 079°34'.

Length 244 m; draft 12.1 m.

Type: Tanker. MMSI: 240892000.

Date/timePositionNaut miles runAvg speedWind from/ knotsBaromVisibWave heightAir tempDewpointWater temp
2018-Feb-20 02:43N 25°40' W 079°34'211.3
2018-Feb-20 02:30N 25°43' W 079°33'611.3
2018-Feb-20 01:59N 25°49' W 079°33'611.3
2018-Feb-20 01:29N 25°54' W 079°32'1011.3
2018-Feb-20 00:37N 26°04' W 079°31'111.3
2018-Feb-20 00:30N 26°05' W 079°30'611.4
2018-Feb-20 00:00N 26°11' W 079°29'611.4
2018-Feb-19 23:30N 26°17' W 079°28'611.4
2018-Feb-19 22:57N 26°23' W 079°27'  

Dump ship's entire track history